createdAt,value
2023-04-16T00:00:09.608Z,100567.17
2023-04-16T00:02:41.602Z,100568.73
2023-04-16T00:05:09.928Z,100568.17
2023-04-16T00:07:38.010Z,100571.16
2023-04-16T00:10:07.113Z,100572.42
2023-04-16T00:12:36.592Z,100572.13
2023-04-16T00:15:04.671Z,100574.98
2023-04-16T00:17:33.035Z,100576.23
2023-04-16T00:20:01.000Z,100571.74
2023-04-16T00:22:29.372Z,100570.81
2023-04-16T00:24:57.331Z,100578.20
2023-04-16T00:27:25.221Z,100576.81
2023-04-16T00:29:53.135Z,100569.84
2023-04-16T00:32:21.013Z,100570.14
2023-04-16T00:34:48.955Z,100570.42
2023-04-16T00:37:17.076Z,100571.63
2023-04-16T00:39:45.916Z,100570.77
2023-04-16T00:42:14.470Z,100574.84
2023-04-16T00:44:42.471Z,100572.00
2023-04-16T00:47:11.806Z,100575.87
2023-04-16T00:49:39.712Z,100576.45
2023-04-16T00:52:07.736Z,100580.19
2023-04-16T00:54:36.285Z,100580.08
2023-04-16T00:57:04.276Z,100581.13
2023-04-16T00:59:32.655Z,100582.45
2023-04-16T01:02:00.920Z,100576.55
2023-04-16T01:04:30.965Z,100580.36
2023-04-16T01:06:59.081Z,100581.77
2023-04-16T01:09:27.171Z,100580.10
2023-04-16T01:11:55.230Z,100580.36
2023-04-16T01:14:23.163Z,100586.98
2023-04-16T01:16:51.267Z,100588.22
2023-04-16T01:19:19.194Z,100590.46
2023-04-16T01:21:47.347Z,100587.60
2023-04-16T01:24:15.643Z,100586.10
2023-04-16T01:26:44.090Z,100589.80
2023-04-16T01:29:12.084Z,100589.23
2023-04-16T01:31:40.121Z,100584.66
2023-04-16T01:34:27.171Z,100582.44
2023-04-16T01:36:55.641Z,100581.71
2023-04-16T01:39:23.599Z,100579.39
2023-04-16T01:41:51.513Z,100581.98
2023-04-16T01:44:19.478Z,100582.02
2023-04-16T01:46:47.821Z,100582.11
2023-04-16T01:49:15.837Z,100579.86
2023-04-16T01:51:43.722Z,100583.45
2023-04-16T01:54:11.653Z,100588.02
2023-04-16T01:56:42.090Z,100584.40
2023-04-16T01:59:10.114Z,100580.84
2023-04-16T02:01:42.597Z,100582.33
2023-04-16T02:04:11.045Z,100585.91
2023-04-16T02:06:39.450Z,100585.58
2023-04-16T02:09:07.583Z,100584.64
2023-04-16T02:11:36.513Z,100587.95
2023-04-16T02:14:04.391Z,100589.41
2023-04-16T02:16:32.318Z,100588.64
2023-04-16T02:19:19.184Z,100598.59
2023-04-16T02:21:48.134Z,100596.64
2023-04-16T02:24:16.396Z,100596.51
2023-04-16T02:26:45.170Z,100598.55
2023-04-16T02:29:16.583Z,100602.77
2023-04-16T02:31:48.898Z,100602.15
2023-04-16T02:34:16.867Z,100603.96
2023-04-16T02:36:44.758Z,100607.81
2023-04-16T02:39:12.857Z,100607.55
2023-04-16T02:41:41.086Z,100607.39
2023-04-16T02:44:09.077Z,100606.33
2023-04-16T02:46:37.420Z,100612.04
2023-04-16T02:49:05.338Z,100612.05
2023-04-16T02:51:33.535Z,100610.42
2023-04-16T02:54:03.053Z,100613.06
2023-04-16T02:56:31.790Z,100612.59
2023-04-16T02:58:59.754Z,100615.85
2023-04-16T03:01:29.130Z,100613.98
2023-04-16T03:03:57.313Z,100620.59
2023-04-16T03:06:27.970Z,100622.41
2023-04-16T03:08:56.026Z,100622.48
2023-04-16T03:11:24.163Z,100625.24
2023-04-16T03:13:52.146Z,100630.20
2023-04-16T03:16:20.083Z,100633.52
2023-04-16T03:18:48.129Z,100634.13
2023-04-16T03:21:18.462Z,100637.08
2023-04-16T03:23:46.410Z,100636.74
2023-04-16T03:26:14.314Z,100637.41
2023-04-16T03:28:48.467Z,100642.20
2023-04-16T03:31:16.532Z,100647.86
2023-04-16T03:33:44.604Z,100646.21
2023-04-16T03:36:12.579Z,100646.17
2023-04-16T03:38:40.523Z,100643.91
2023-04-16T03:41:10.247Z,100647.91
2023-04-16T03:43:38.431Z,100645.82
2023-04-16T03:46:06.876Z,100651.39
2023-04-16T03:48:35.341Z,100652.66
2023-04-16T03:51:03.499Z,100653.11
2023-04-16T03:53:32.270Z,100652.20
2023-04-16T03:56:00.391Z,100656.80
2023-04-16T03:58:29.300Z,100659.58
2023-04-16T04:00:57.650Z,100659.50
2023-04-16T04:03:26.407Z,100660.20
2023-04-16T04:05:55.171Z,100658.02
2023-04-16T04:08:29.901Z,100658.86
2023-04-16T04:10:58.234Z,100660.98
2023-04-16T04:13:27.235Z,100663.20
2023-04-16T04:15:55.503Z,100664.73
2023-04-16T04:18:24.391Z,100665.14
2023-04-16T04:20:52.521Z,100664.70
2023-04-16T04:23:22.594Z,100664.14
2023-04-16T04:25:51.608Z,100663.74
2023-04-16T04:28:19.935Z,100659.56
2023-04-16T04:30:48.174Z,100659.31
2023-04-16T04:33:17.441Z,100659.32
2023-04-16T04:35:45.438Z,100662.69
2023-04-16T04:38:14.955Z,100665.33
2023-04-16T04:40:44.538Z,100666.92
2023-04-16T04:43:12.538Z,100667.74
2023-04-16T04:45:40.868Z,100668.09
2023-04-16T04:48:09.008Z,100668.86
2023-04-16T04:50:37.054Z,100668.45
2023-04-16T04:53:10.054Z,100667.27
2023-04-16T04:55:41.597Z,100667.84
2023-04-16T04:58:10.091Z,100670.91
2023-04-16T05:00:38.472Z,100674.45
2023-04-16T05:03:10.630Z,100675.52
2023-04-16T05:05:41.930Z,100680.29
2023-04-16T05:08:10.483Z,100678.09
2023-04-16T05:10:38.726Z,100679.10
2023-04-16T05:13:06.671Z,100678.20
2023-04-16T05:15:34.620Z,100680.73
2023-04-16T05:18:02.576Z,100683.70
2023-04-16T05:20:31.053Z,100683.19
2023-04-16T05:22:59.160Z,100682.11
2023-04-16T05:25:27.269Z,100681.82
2023-04-16T05:27:55.185Z,100686.30
2023-04-16T05:30:23.146Z,100687.67
2023-04-16T05:32:51.833Z,100691.88
2023-04-16T05:35:19.902Z,100698.52
2023-04-16T05:37:47.912Z,100694.46
2023-04-16T05:40:15.937Z,100691.67
2023-04-16T05:42:43.904Z,100690.21
2023-04-16T05:45:11.965Z,100690.12
2023-04-16T05:47:40.608Z,100689.39
2023-04-16T05:50:09.017Z,100691.19
2023-04-16T05:52:37.006Z,100693.97
2023-04-16T05:55:05.857Z,100695.65
2023-04-16T05:57:33.862Z,100695.02
2023-04-16T06:00:01.846Z,100698.52
2023-04-16T06:02:40.033Z,100702.77
2023-04-16T06:05:08.528Z,100704.41
2023-04-16T06:07:36.624Z,100704.82
2023-04-16T06:10:05.795Z,100708.82
2023-04-16T06:12:33.861Z,100713.31
2023-04-16T06:15:01.929Z,100716.55
2023-04-16T06:17:30.403Z,100715.55
2023-04-16T06:19:58.387Z,100718.44
2023-04-16T06:22:26.483Z,100718.17
2023-04-16T06:24:54.583Z,100721.98
2023-04-16T06:27:22.596Z,100723.54
2023-04-16T06:29:50.774Z,100726.77
2023-04-16T06:32:18.801Z,100730.08
2023-04-16T06:34:46.741Z,100728.31
2023-04-16T06:37:14.673Z,100730.63
2023-04-16T06:39:42.603Z,100736.32
2023-04-16T06:42:10.593Z,100736.33
2023-04-16T06:44:39.871Z,100743.08
2023-04-16T06:47:08.051Z,100743.72
2023-04-16T06:49:36.226Z,100748.11
2023-04-16T06:52:05.928Z,100749.65
2023-04-16T06:54:34.347Z,100748.23
2023-04-16T06:57:02.340Z,100747.58
2023-04-16T06:59:30.500Z,100753.73
2023-04-16T07:01:59.999Z,100757.23
2023-04-16T07:04:28.389Z,100759.62
2023-04-16T07:06:56.519Z,100759.20
2023-04-16T07:09:25.034Z,100764.97
2023-04-16T07:11:53.854Z,100767.17
2023-04-16T07:14:21.887Z,100764.77
2023-04-16T07:16:50.034Z,100766.05
2023-04-16T07:19:18.106Z,100771.63
2023-04-16T07:21:46.308Z,100771.76
2023-04-16T07:24:14.264Z,100770.88
2023-04-16T07:26:42.775Z,100770.91
2023-04-16T07:29:10.977Z,100769.52
2023-04-16T07:31:39.182Z,100766.84
2023-04-16T07:34:07.191Z,100772.02
2023-04-16T07:36:35.585Z,100766.55
2023-04-16T07:39:06.970Z,100762.64
2023-04-16T07:41:35.386Z,100768.61
2023-04-16T07:44:03.639Z,100766.28
2023-04-16T07:46:45.727Z,100764.96
2023-04-16T07:49:14.938Z,100761.17
2023-04-16T07:51:43.309Z,100767.91
2023-04-16T07:54:11.575Z,100763.67
2023-04-16T07:56:39.609Z,100768.82
2023-04-16T07:59:19.190Z,100774.33
2023-04-16T08:01:52.746Z,100772.73
2023-04-16T08:04:25.014Z,100777.18
2023-04-16T08:06:54.489Z,100786.45
2023-04-16T08:09:23.165Z,100782.27
2023-04-16T08:11:51.399Z,100782.84
2023-04-16T08:14:19.287Z,100787.09
2023-04-16T08:16:47.206Z,100779.10
2023-04-16T08:19:15.135Z,100781.48
2023-04-16T08:21:43.116Z,100781.94
2023-04-16T08:24:11.832Z,100779.73
2023-04-16T08:26:39.774Z,100776.94
2023-04-16T08:29:08.159Z,100774.17
2023-04-16T08:31:36.216Z,100774.32
2023-04-16T08:34:04.523Z,100775.90
2023-04-16T08:36:32.460Z,100770.34
2023-04-16T08:39:00.391Z,100771.41
2023-04-16T08:41:31.174Z,100771.46
2023-04-16T08:44:00.392Z,100772.20
2023-04-16T08:46:28.572Z,100770.94
2023-04-16T08:48:56.524Z,100769.60
2023-04-16T08:51:24.434Z,100770.42
2023-04-16T08:53:53.301Z,100773.23
2023-04-16T08:56:23.133Z,100775.62
2023-04-16T08:58:51.358Z,100778.03
2023-04-16T09:01:19.432Z,100780.36
2023-04-16T09:03:48.275Z,100776.70
2023-04-16T09:06:17.043Z,100777.39
2023-04-16T09:08:45.824Z,100778.10
2023-04-16T09:11:14.004Z,100778.35
2023-04-16T09:13:42.439Z,100777.09
2023-04-16T09:16:10.860Z,100774.36
2023-04-16T09:18:39.119Z,100780.05
2023-04-16T09:21:09.514Z,100775.01
2023-04-16T09:23:41.146Z,100777.87
2023-04-16T09:26:09.056Z,100776.89
2023-04-16T09:28:46.935Z,100773.50
2023-04-16T09:31:16.456Z,100777.11
2023-04-16T09:34:00.373Z,100777.38
2023-04-16T09:36:28.286Z,100781.92
2023-04-16T09:38:57.766Z,100783.08
2023-04-16T09:41:28.121Z,100782.23
2023-04-16T09:44:04.271Z,100783.97
2023-04-16T09:46:37.665Z,100783.16
2023-04-16T09:49:09.454Z,100789.23
2023-04-16T09:51:38.639Z,100787.77
2023-04-16T09:54:06.943Z,100792.86
2023-04-16T09:56:43.212Z,100795.98
2023-04-16T09:59:18.461Z,100797.41
2023-04-16T10:01:47.097Z,100800.77
2023-04-16T10:04:16.398Z,100807.65
2023-04-16T10:06:44.642Z,100811.17
2023-04-16T10:09:12.740Z,100810.46
2023-04-16T10:11:41.094Z,100810.94
2023-04-16T10:14:10.297Z,100812.38
2023-04-16T10:16:41.249Z,100811.48
2023-04-16T10:19:09.596Z,100816.44
2023-04-16T10:21:37.973Z,100821.66
2023-04-16T10:24:06.226Z,100818.59
2023-04-16T10:26:34.594Z,100819.14
2023-04-16T10:29:02.760Z,100816.82
2023-04-16T10:31:30.944Z,100819.48
2023-04-16T10:33:58.900Z,100819.63
2023-04-16T10:36:27.173Z,100823.20
2023-04-16T10:38:59.057Z,100823.90
2023-04-16T10:41:27.526Z,100826.59
2023-04-16T10:44:10.076Z,100827.02
2023-04-16T10:46:40.249Z,100825.06
2023-04-16T10:49:16.259Z,100835.20
2023-04-16T10:51:54.749Z,100829.92
2023-04-16T10:54:29.480Z,100829.58
2023-04-16T10:56:59.056Z,100828.73
2023-04-16T10:59:30.976Z,100828.55
2023-04-16T11:05:03.539Z,100845.58
2023-04-16T11:07:33.821Z,100838.94
2023-04-16T11:10:06.345Z,100837.73
2023-04-16T11:12:47.500Z,100836.84
2023-04-16T11:15:16.246Z,100836.56
2023-04-16T11:17:48.851Z,100834.94
2023-04-16T11:20:19.943Z,100836.39
2023-04-16T11:22:51.845Z,100838.73
2023-04-16T11:25:23.289Z,100843.34
2023-04-16T11:27:52.043Z,100838.02
2023-04-16T11:30:37.476Z,100837.30
2023-04-16T11:33:06.261Z,100834.34
2023-04-16T11:35:35.912Z,100836.11
2023-04-16T11:38:06.074Z,100839.29
2023-04-16T11:40:34.247Z,100838.30
2023-04-16T11:43:14.922Z,100844.80
2023-04-16T11:45:59.286Z,100847.92
2023-04-16T11:48:46.862Z,100848.13
2023-04-16T11:51:15.043Z,100837.10
2023-04-16T11:53:53.404Z,100838.58
2023-04-16T11:56:26.284Z,100836.69
2023-04-16T11:59:28.096Z,100837.42
2023-04-16T12:01:56.334Z,100834.88
2023-04-16T12:04:29.440Z,100833.10
2023-04-16T12:07:13.567Z,100837.29
2023-04-16T12:09:43.603Z,100837.78
2023-04-16T12:12:32.151Z,100829.59
2023-04-16T12:15:03.704Z,100833.58
2023-04-16T12:17:33.011Z,100832.52
2023-04-16T12:20:03.991Z,100828.38
2023-04-16T12:22:36.824Z,100829.29
2023-04-16T12:25:10.686Z,100829.65
2023-04-16T12:27:52.366Z,100829.90
2023-04-16T12:30:22.913Z,100830.48
2023-04-16T12:32:52.399Z,100831.34
2023-04-16T12:35:31.584Z,100825.66
2023-04-16T12:38:00.151Z,100833.34
2023-04-16T12:40:28.309Z,100826.27
2023-04-16T12:42:56.592Z,100821.69
2023-04-16T12:45:24.730Z,100821.70
2023-04-16T12:47:52.834Z,100820.80
2023-04-16T12:50:20.997Z,100823.19
2023-04-16T12:52:49.113Z,100820.89
2023-04-16T12:55:17.018Z,100817.19
2023-04-16T12:57:44.923Z,100816.70
2023-04-16T13:00:14.823Z,100816.77
2023-04-16T13:02:43.275Z,100817.06
2023-04-16T13:05:11.592Z,100819.83
2023-04-16T13:07:39.574Z,100815.75
2023-04-16T13:10:08.312Z,100818.64
2023-04-16T13:12:36.628Z,100817.69
2023-04-16T13:15:05.479Z,100821.31
2023-04-16T13:17:33.520Z,100817.52
2023-04-16T13:20:01.654Z,100818.39
2023-04-16T13:22:30.325Z,100815.17
2023-04-16T13:24:58.252Z,100819.33
2023-04-16T13:27:26.259Z,100818.45
2023-04-16T13:29:54.214Z,100819.24
2023-04-16T13:32:22.180Z,100818.89
2023-04-16T13:34:50.026Z,100820.13
2023-04-16T13:37:17.966Z,100821.20
2023-04-16T13:39:45.972Z,100820.49
2023-04-16T13:42:14.207Z,100819.33
2023-04-16T13:44:42.662Z,100820.10
2023-04-16T13:47:11.302Z,100820.03
2023-04-16T13:49:39.194Z,100822.41
2023-04-16T13:52:07.103Z,100822.36
2023-04-16T13:54:35.483Z,100828.76
2023-04-16T13:57:03.621Z,100824.93
2023-04-16T13:59:31.649Z,100824.17
2023-04-16T14:01:59.565Z,100821.86
2023-04-16T14:04:27.721Z,100824.36
2023-04-16T14:06:56.221Z,100822.79
2023-04-16T14:09:24.459Z,100823.38
2023-04-16T14:11:52.494Z,100819.76
2023-04-16T14:14:20.715Z,100822.70
2023-04-16T14:16:48.938Z,100820.36
2023-04-16T14:19:17.097Z,100818.09
2023-04-16T14:21:45.042Z,100814.09
2023-04-16T14:24:13.020Z,100813.25
2023-04-16T14:26:43.537Z,100813.86
2023-04-16T14:29:11.653Z,100813.73
2023-04-16T14:31:40.474Z,100815.08
2023-04-16T14:34:08.641Z,100815.17
2023-04-16T14:36:36.865Z,100811.70
2023-04-16T14:39:04.758Z,100813.85
2023-04-16T14:41:33.024Z,100812.02
2023-04-16T14:44:01.319Z,100811.13
2023-04-16T14:46:30.615Z,100815.29
2023-04-16T14:48:58.539Z,100815.15
2023-04-16T14:51:27.468Z,100822.09
2023-04-16T14:53:56.245Z,100823.86
2023-04-16T14:56:24.203Z,100824.54
2023-04-16T14:58:52.116Z,100824.17
2023-04-16T15:01:20.054Z,100825.22
2023-04-16T15:03:48.127Z,100827.29
2023-04-16T15:06:16.588Z,100823.85
2023-04-16T15:08:44.933Z,100821.75
2023-04-16T15:11:12.945Z,100821.37
2023-04-16T15:13:42.026Z,100817.01
2023-04-16T15:16:10.433Z,100815.60
2023-04-16T15:18:38.504Z,100814.69
2023-04-16T15:21:06.466Z,100814.39
2023-04-16T15:23:35.443Z,100812.41
2023-04-16T15:26:03.414Z,100808.91
2023-04-16T15:28:31.924Z,100808.23
2023-04-16T15:31:00.120Z,100808.05
2023-04-16T15:33:29.040Z,100807.38
2023-04-16T15:35:57.006Z,100811.98
2023-04-16T15:38:24.943Z,100815.01
2023-04-16T15:40:52.850Z,100814.70
2023-04-16T15:43:20.776Z,100816.11
2023-04-16T15:45:48.831Z,100815.34
2023-04-16T15:48:17.277Z,100815.17
2023-04-16T15:50:45.386Z,100814.61
2023-04-16T15:53:13.571Z,100815.48
2023-04-16T15:55:42.719Z,100814.88
2023-04-16T15:58:12.971Z,100813.47
2023-04-16T16:00:41.569Z,100815.48
2023-04-16T16:03:10.600Z,100819.41
2023-04-16T16:05:40.359Z,100823.11
2023-04-16T16:08:08.382Z,100823.23
2023-04-16T16:10:36.450Z,100824.20
2023-04-16T16:13:06.143Z,100825.02
2023-04-16T16:15:35.036Z,100826.99
2023-04-16T16:18:03.324Z,100831.03
2023-04-16T16:20:31.980Z,100832.94
2023-04-16T16:23:00.351Z,100832.81
2023-04-16T16:25:29.115Z,100834.24
2023-04-16T16:27:58.887Z,100833.30
2023-04-16T16:30:27.256Z,100834.23
2023-04-16T16:32:55.468Z,100830.20
2023-04-16T16:35:23.513Z,100832.42
2023-04-16T16:37:55.460Z,100829.88
2023-04-16T16:40:23.807Z,100830.48
2023-04-16T16:42:51.782Z,100832.79
2023-04-16T16:45:19.764Z,100831.53
2023-04-16T16:47:48.900Z,100830.57
2023-04-16T16:50:17.738Z,100830.07
2023-04-16T16:52:45.963Z,100831.77
2023-04-16T16:55:13.866Z,100831.94
2023-04-16T16:57:42.384Z,100834.27
2023-04-16T17:00:19.738Z,100829.57
2023-04-16T17:02:51.238Z,100834.45
2023-04-16T17:05:19.944Z,100834.52
2023-04-16T17:07:51.118Z,100837.51
2023-04-16T17:10:22.467Z,100837.14
2023-04-16T17:12:51.204Z,100839.09
2023-04-16T17:15:21.810Z,100841.00
2023-04-16T17:17:50.534Z,100850.91
2023-04-16T17:20:18.665Z,100851.94
2023-04-16T17:22:46.859Z,100854.57
2023-04-16T17:25:15.645Z,100857.17
2023-04-16T17:27:43.886Z,100858.89
2023-04-16T17:30:12.111Z,100858.29
2023-04-16T17:32:40.926Z,100861.94
2023-04-16T17:35:10.268Z,100862.45
2023-04-16T17:37:38.948Z,100860.64
2023-04-16T17:40:08.070Z,100856.94
2023-04-16T17:42:36.883Z,100864.02
2023-04-16T17:45:05.666Z,100866.02
2023-04-16T17:47:36.871Z,100863.51
2023-04-16T17:50:05.070Z,100869.13
2023-04-16T17:52:33.251Z,100868.13
2023-04-16T17:55:01.762Z,100873.23
2023-04-16T17:57:30.577Z,100873.55
2023-04-16T17:59:58.585Z,100875.67
2023-04-16T18:02:26.921Z,100873.20
2023-04-16T18:04:55.114Z,100875.81
2023-04-16T18:07:23.181Z,100877.83
2023-04-16T18:09:51.121Z,100877.48
2023-04-16T18:12:19.272Z,100880.27
2023-04-16T18:14:47.268Z,100881.23
2023-04-16T18:17:15.648Z,100881.16
2023-04-16T18:19:44.552Z,100882.16
2023-04-16T18:22:13.394Z,100880.09
2023-04-16T18:24:41.357Z,100878.48
2023-04-16T18:27:09.358Z,100882.41
2023-04-16T18:29:39.610Z,100883.73
2023-04-16T18:32:12.355Z,100886.51
2023-04-16T18:34:40.742Z,100876.86
2023-04-16T18:37:08.906Z,100881.50
2023-04-16T18:39:37.416Z,100881.25
2023-04-16T18:42:05.394Z,100882.98
2023-04-16T18:44:33.857Z,100880.58
2023-04-16T18:47:01.830Z,100876.38
2023-04-16T18:49:29.986Z,100877.30
2023-04-16T18:51:59.792Z,100879.14
2023-04-16T18:54:28.044Z,100877.58
2023-04-16T18:56:57.777Z,100880.70
2023-04-16T18:59:27.964Z,100875.79
2023-04-16T19:01:56.278Z,100875.49
2023-04-16T19:04:24.396Z,100875.52
2023-04-16T19:06:52.765Z,100872.65
2023-04-16T19:09:20.649Z,100877.88
2023-04-16T19:11:50.609Z,100874.38
2023-04-16T19:14:18.730Z,100874.19
2023-04-16T19:16:47.495Z,100875.00
2023-04-16T19:19:16.990Z,100873.02
2023-04-16T19:21:44.954Z,100872.50
2023-04-16T19:24:12.870Z,100875.23
2023-04-16T19:26:40.904Z,100873.58
2023-04-16T19:29:08.979Z,100875.37
2023-04-16T19:31:37.078Z,100869.56
2023-04-16T19:34:05.097Z,100869.83
2023-04-16T19:36:34.407Z,100869.41
2023-04-16T19:39:02.334Z,100866.70
2023-04-16T19:41:30.902Z,100863.44
2023-04-16T19:43:59.045Z,100862.05
2023-04-16T19:46:27.148Z,100863.67
2023-04-16T19:48:56.773Z,100862.20
2023-04-16T19:51:24.779Z,100859.15
2023-04-16T19:53:53.474Z,100862.33
2023-04-16T19:56:21.404Z,100863.62
2023-04-16T19:58:51.864Z,100862.05
2023-04-16T20:01:19.767Z,100864.52
2023-04-16T20:03:47.768Z,100865.92
2023-04-16T20:06:17.441Z,100865.94
2023-04-16T20:08:45.387Z,100866.37
2023-04-16T20:11:13.340Z,100864.56
2023-04-16T20:13:43.193Z,100860.77
2023-04-16T20:16:13.824Z,100857.27
2023-04-16T20:18:42.302Z,100856.98
2023-04-16T20:21:10.549Z,100858.67
2023-04-16T20:23:38.500Z,100857.95
2023-04-16T20:26:06.918Z,100858.18
2023-04-16T20:28:34.942Z,100858.39
2023-04-16T20:31:02.940Z,100857.61
2023-04-16T20:33:31.027Z,100857.08
2023-04-16T20:35:59.020Z,100856.16
2023-04-16T20:38:29.655Z,100857.42
2023-04-16T20:41:10.618Z,100859.74
2023-04-16T20:43:41.010Z,100860.22
2023-04-16T20:46:10.812Z,100856.63
2023-04-16T20:48:39.108Z,100857.60
2023-04-16T20:51:07.856Z,100855.58
2023-04-16T20:53:38.874Z,100851.36
2023-04-16T20:56:08.370Z,100849.32
2023-04-16T20:58:40.691Z,100847.31
2023-04-16T21:01:08.681Z,100851.14
2023-04-16T21:03:37.364Z,100846.61
2023-04-16T21:06:05.612Z,100845.17
2023-04-16T21:08:33.785Z,100843.39
2023-04-16T21:11:03.453Z,100840.77
2023-04-16T21:13:31.428Z,100843.14
2023-04-16T21:15:59.397Z,100842.40
2023-04-16T21:18:27.592Z,100843.35
2023-04-16T21:20:56.031Z,100841.42
2023-04-16T21:23:24.118Z,100840.94
2023-04-16T21:25:52.087Z,100840.64
2023-04-16T21:28:20.462Z,100838.13
2023-04-16T21:30:52.295Z,100836.36
2023-04-16T21:33:21.710Z,100832.16
2023-04-16T21:35:53.240Z,100827.92
2023-04-16T21:38:22.254Z,100824.14
2023-04-16T21:40:53.586Z,100822.99
2023-04-16T21:43:25.233Z,100819.90
2023-04-16T21:45:56.422Z,100813.40
2023-04-16T21:48:24.215Z,100813.23
2023-04-16T21:50:59.235Z,100815.05
2023-04-16T21:53:28.162Z,100807.98
2023-04-16T21:55:56.101Z,100806.27
2023-04-16T21:58:25.827Z,100805.04
2023-04-16T22:00:53.913Z,100807.70
2023-04-16T22:03:26.376Z,100802.66
2023-04-16T22:06:00.934Z,100802.74
2023-04-16T22:08:29.602Z,100804.14
2023-04-16T22:11:02.074Z,100807.75
2023-04-16T22:13:36.491Z,100807.16
2023-04-16T22:16:05.765Z,100804.64
2023-04-16T22:18:34.177Z,100805.52
2023-04-16T22:21:02.835Z,100802.88
2023-04-16T22:23:30.812Z,100802.39
2023-04-16T22:25:58.661Z,100801.73
2023-04-16T22:28:27.337Z,100800.81
2023-04-16T22:30:55.286Z,100800.73
2023-04-16T22:33:23.386Z,100796.05
2023-04-16T22:35:51.529Z,100798.64
2023-04-16T22:38:19.491Z,100801.70
2023-04-16T22:40:48.623Z,100798.34
2023-04-16T22:43:18.131Z,100799.52
2023-04-16T22:45:48.996Z,100791.64
2023-04-16T22:48:17.266Z,100788.66
2023-04-16T22:50:48.410Z,100785.34
2023-04-16T22:53:17.211Z,100786.84
2023-04-16T22:55:45.303Z,100788.06
2023-04-16T22:58:13.252Z,100787.69
2023-04-16T23:00:41.163Z,100786.48
2023-04-16T23:03:09.256Z,100788.20
2023-04-16T23:05:37.472Z,100788.06
2023-04-16T23:08:06.100Z,100782.04
2023-04-16T23:10:34.252Z,100781.69
2023-04-16T23:13:03.030Z,100782.02
2023-04-16T23:15:31.137Z,100780.98
2023-04-16T23:17:59.411Z,100773.19
2023-04-16T23:21:49.198Z,100783.73
2023-04-16T23:24:17.262Z,100770.45
2023-04-16T23:26:45.381Z,100767.56
2023-04-16T23:29:13.467Z,100764.34
2023-04-16T23:31:41.676Z,100760.60
2023-04-16T23:34:09.639Z,100758.33
2023-04-16T23:36:37.811Z,100757.75
2023-04-16T23:39:06.034Z,100754.73
2023-04-16T23:41:34.256Z,100753.33
2023-04-16T23:44:02.559Z,100751.27
2023-04-16T23:46:30.723Z,100749.05
2023-04-16T23:48:58.727Z,100746.24
2023-04-16T23:51:26.651Z,100746.48
2023-04-16T23:53:54.552Z,100749.44
2023-04-16T23:56:22.454Z,100751.64
2023-04-16T23:58:50.496Z,100752.59
